Time;durP1;ratioP1;P1;durP2;ratioP2;P2;SDS_P1;SDS_P2;PMS_P1;PMS_P2;Temp;Humidity;BMP_temperature;BMP_pressure;BME280_temperature;BME280_humidity;BME280_pressure;Samples;Min_cycle;Max_cycle;Signal;HPM_P1;HPM_P2
2023/05/23 00:02:07;;;;;;;13.63;9.52;;;;;;;21.21;59.14;101837.28;6124125;23;20381;-49
2023/05/23 00:04:32;;;;;;;12.32;8.80;;;;;;;21.21;59.26;101834.56;6124011;23;20010;-47
2023/05/23 00:06:58;;;;;;;13.38;9.18;;;;;;;21.20;58.83;101828.31;6123661;23;20017;-50
2023/05/23 00:09:23;;;;;;;10.48;9.05;;;;;;;21.20;59.04;101822.88;6123546;23;20021;-50
2023/05/23 00:11:48;;;;;;;11.48;9.02;;;;;;;21.19;59.02;101828.44;6123577;23;20373;-51
2023/05/23 00:14:14;;;;;;;10.82;9.20;;;;;;;21.19;58.88;101823.03;6123655;23;20020;-52
2023/05/23 00:16:42;;;;;;;11.43;8.93;;;;;;;21.18;59.02;101830.31;6123721;23;20006;-49
2023/05/23 00:19:09;;;;;;;10.57;9.20;;;;;;;21.18;58.67;101837.59;6123372;23;20101;-52
2023/05/23 00:21:34;;;;;;;9.98;8.70;;;;;;;21.18;58.93;101826.75;6124258;23;20429;-50
2023/05/23 00:24:01;;;;;;;11.15;8.75;;;;;;;21.16;58.61;101835.00;6123589;23;20093;-48
2023/05/23 00:26:28;;;;;;;9.82;8.82;;;;;;;21.16;58.92;101836.88;6123731;23;20094;-52
2023/05/23 00:28:55;;;;;;;12.73;9.02;;;;;;;21.16;59.00;101831.47;6125307;23;20002;-49
2023/05/23 00:31:21;;;;;;;11.13;9.00;;;;;;;21.15;58.91;101838.72;6125823;23;20366;-48
2023/05/23 00:33:46;;;;;;;10.05;8.60;;;;;;;21.15;58.64;101854.09;6125616;23;20041;-49
2023/05/23 00:36:12;;;;;;;9.57;8.15;;;;;;;21.14;59.02;101847.84;6125335;23;20016;-48
2023/05/23 00:38:38;;;;;;;12.88;8.73;;;;;;;21.15;58.80;101851.41;6126256;23;20013;-51
2023/05/23 00:41:04;;;;;;;9.75;8.15;;;;;;;21.14;58.91;101858.66;6126324;23;20065;-51
2023/05/23 00:43:30;;;;;;;10.13;7.60;;;;;;;21.14;58.82;101857.81;6125679;23;20365;-51
2023/05/23 00:45:56;;;;;;;9.95;8.15;;;;;;;21.14;58.91;101855.13;6126331;23;20006;-48
2023/05/23 00:48:23;;;;;;;11.25;8.65;;;;;;;21.12;58.90;101862.53;6125342;23;20010;-51
2023/05/23 00:50:49;;;;;;;12.95;8.48;;;;;;;21.12;58.53;101857.97;6125614;23;20006;-48
2023/05/23 00:53:15;;;;;;;8.23;7.38;;;;;;;21.12;58.61;101852.56;6125836;23;20037;-52
2023/05/23 00:55:41;;;;;;;11.63;8.18;;;;;;;21.11;58.89;101847.28;6125636;23;20433;-48
2023/05/23 00:58:07;;;;;;;10.23;7.35;;;;;;;21.11;58.30;101858.94;6099971;23;20006;-51
2023/05/23 01:00:33;;;;;;;10.95;8.18;;;;;;;21.11;58.71;101858.09;6125277;23;20017;-50
2023/05/23 01:03:00;;;;;;;11.35;7.93;;;;;;;21.11;58.73;101858.09;6125631;23;20484;-52
2023/05/23 01:05:25;;;;;;;9.80;7.88;;;;;;;21.09;58.60;101856.41;6124870;23;20014;-48
2023/05/23 01:07:51;;;;;;;8.45;7.22;;;;;;;21.09;58.60;101856.41;6125461;23;20017;-51
2023/05/23 01:10:24;;;;;;;7.97;7.18;;;;;;;21.09;58.36;101866.34;6125234;23;20002;-50
2023/05/23 01:13:31;;;;;;;8.40;7.10;;;;;;;21.12;58.40;101871.50;6125276;23;20005;-50
2023/05/23 01:16:18;;;;;;;9.05;7.90;;;;;;;21.09;58.43;101877.19;6124836;23;20013;-50
2023/05/23 01:19:03;;;;;;;9.32;6.95;;;;;;;21.11;58.71;101874.34;6124812;23;20014;-51
2023/05/23 01:21:30;;;;;;;9.57;7.28;;;;;;;21.08;58.31;101876.34;6125028;23;20006;-49
2023/05/23 01:24:53;;;;;;;8.10;6.63;;;;;;;21.12;58.43;101873.38;6125301;23;20018;-51
2023/05/23 01:27:56;;;;;;;8.35;7.32;;;;;;;21.11;58.27;101874.34;6007308;23;20015;-48
2023/05/23 01:30:25;;;;;;;9.63;7.40;;;;;;;21.07;58.30;101877.31;6124991;23;20056;-48
2023/05/23 01:32:53;;;;;;;9.55;7.05;;;;;;;21.06;58.29;101875.63;6124992;23;20052;-51
2023/05/23 01:35:26;;;;;;;10.00;7.07;;;;;;;21.05;58.51;101879.31;6124697;23;20005;-51
2023/05/23 01:37:53;;;;;;;11.13;7.65;;;;;;;21.06;58.36;101881.06;6125106;23;20307;-49
2023/05/23 01:40:18;;;;;;;9.32;7.05;;;;;;;21.05;58.47;101882.03;6125216;23;20014;-52
2023/05/23 01:42:44;;;;;;;9.65;7.30;;;;;;;21.06;58.56;101877.50;6124881;23;20041;-52
2023/05/23 01:45:11;;;;;;;9.45;6.95;;;;;;;21.03;58.50;101875.91;6125451;23;20085;-51
2023/05/23 01:47:38;;;;;;;7.93;6.97;;;;;;;21.04;58.40;101879.50;6125783;23;20422;-51
2023/05/23 01:50:05;;;;;;;8.80;7.10;;;;;;;21.02;58.44;101882.34;6125429;23;20009;-48
2023/05/23 01:52:30;;;;;;;9.27;6.95;;;;;;;21.02;58.46;101882.34;6125404;23;20481;-51
2023/05/23 01:54:56;;;;;;;8.77;7.20;;;;;;;21.03;57.96;101889.44;6124781;23;20085;-50
2023/05/23 01:57:23;;;;;;;9.27;6.90;;;;;;;21.01;58.31;101896.84;6124748;23;20085;-52
2023/05/23 01:59:49;;;;;;;10.27;6.65;;;;;;;21.01;58.01;101891.44;6124944;23;20869;-50
2023/05/23 02:02:14;;;;;;;8.38;6.63;;;;;;;21.01;57.94;101896.84;6124631;23;20085;-52
2023/05/23 02:04:40;;;;;;;10.35;6.82;;;;;;;21.02;58.16;101897.72;6124937;23;20089;-51
2023/05/23 02:07:06;;;;;;;9.45;6.22;;;;;;;21.02;57.90;101897.72;6124585;23;20056;-49
2023/05/23 02:09:31;;;;;;;10.63;7.00;;;;;;;21.00;58.25;101908.69;6124547;23;20093;-48
2023/05/23 02:11:58;;;;;;;7.00;6.30;;;;;;;21.01;57.96;101904.13;6124848;23;20045;-48
2023/05/23 02:14:25;;;;;;;7.72;6.45;;;;;;;21.00;57.86;101905.13;6124486;23;20006;-51
2023/05/23 02:16:52;;;;;;;7.88;6.53;;;;;;;21.01;57.75;101907.69;6124605;23;20006;-49
2023/05/23 02:19:18;;;;;;;9.93;7.10;;;;;;;21.00;58.14;101905.13;6123909;23;20022;-49
2023/05/23 02:21:43;;;;;;;10.07;6.75;;;;;;;21.01;58.19;101906.84;6124527;23;20016;-51
2023/05/23 02:24:08;;;;;;;9.60;6.43;;;;;;;21.00;58.63;101915.94;6125253;23;20036;-50
2023/05/23 02:26:34;;;;;;;8.45;6.80;;;;;;;21.00;58.02;101914.13;6124417;23;20006;-49
2023/05/23 02:28:59;;;;;;;7.20;6.50;;;;;;;21.00;58.38;101913.22;6124589;23;20069;-48
2023/05/23 02:31:26;;;;;;;9.02;6.55;;;;;;;20.99;58.26;101919.66;6124452;23;20010;-50
2023/05/23 02:33:52;;;;;;;11.45;7.40;;;;;;;20.98;58.42;101913.41;6124703;23;20052;-48
2023/05/23 02:36:17;;;;;;;9.50;6.82;;;;;;;20.99;58.36;101915.09;6124800;23;20013;-51
2023/05/23 02:38:43;;;;;;;10.95;6.93;;;;;;;20.98;58.03;101910.69;6125090;23;20431;-50
2023/05/23 02:41:08;;;;;;;7.55;6.05;;;;;;;20.99;57.93;101920.50;6124362;23;20006;-48
2023/05/23 02:43:34;;;;;;;10.05;6.18;;;;;;;20.98;58.08;101916.09;6124352;23;20014;-50
2023/05/23 02:45:59;;;;;;;10.93;6.70;;;;;;;20.98;58.03;101916.09;6124563;23;20013;-51
2023/05/23 02:48:25;;;;;;;6.38;5.78;;;;;;;20.96;57.82;101909.97;6124171;23;20010;-51
2023/05/23 02:50:50;;;;;;;9.05;6.45;;;;;;;20.97;58.05;101921.66;6124090;23;20359;-49
2023/05/23 02:53:16;;;;;;;7.97;6.20;;;;;;;20.97;58.56;101922.50;6124506;23;20060;-49
2023/05/23 02:55:41;;;;;;;7.40;5.95;;;;;;;20.97;57.99;101917.09;6098873;23;20347;-51
2023/05/23 02:58:07;;;;;;;8.55;5.78;;;;;;;20.95;58.26;101919.09;6124441;23;20032;-51
2023/05/23 03:00:33;;;;;;;7.05;6.15;;;;;;;20.96;58.41;101923.53;6124606;23;20017;-52
2023/05/23 03:02:58;;;;;;;10.40;6.50;;;;;;;20.96;58.31;101918.09;6124156;23;20092;-52
2023/05/23 03:05:24;;;;;;;7.55;6.70;;;;;;;20.96;58.30;101912.69;6124062;23;20333;-52
2023/05/23 03:07:50;;;;;;;7.50;6.00;;;;;;;20.95;58.34;101916.38;6124298;23;20006;-51
2023/05/23 03:10:16;;;;;;;8.30;5.72;;;;;;;20.93;58.26;101915.66;6124367;23;20002;-52
2023/05/23 03:12:42;;;;;;;6.35;5.68;;;;;;;20.95;57.77;101916.38;6124598;23;20459;-49
2023/05/23 03:15:08;;;;;;;9.43;5.47;;;;;;;20.95;57.94;101923.66;6124038;23;20009;-51
2023/05/23 03:17:34;;;;;;;6.70;6.00;;;;;;;20.93;57.80;101923.78;6124393;23;20029;-49
2023/05/23 03:19:59;;;;;;;7.18;5.95;;;;;;;20.92;57.79;101919.34;6123711;23;20018;-51
2023/05/23 03:22:25;;;;;;;6.95;5.22;;;;;;;20.93;57.99;101918.38;6124193;23;20005;-51
2023/05/23 03:24:50;;;;;;;6.47;5.80;;;;;;;20.92;58.27;101919.34;6124025;23;20042;-48
2023/05/23 03:27:15;;;;;;;7.75;5.78;;;;;;;20.92;57.91;101919.34;6124441;23;20377;-51
2023/05/23 03:29:41;;;;;;;8.20;5.68;;;;;;;20.92;57.89;101927.47;6124425;23;20312;-51
2023/05/23 03:32:06;;;;;;;6.70;5.70;;;;;;;20.92;57.64;101918.50;6123943;23;20017;-49
2023/05/23 03:34:32;;;;;;;7.80;5.38;;;;;;;20.91;58.13;101923.06;6123789;23;20447;-52
2023/05/23 03:36:58;;;;;;;5.57;4.82;;;;;;;20.91;58.07;101928.47;6123730;23;20006;-50
2023/05/23 03:39:24;;;;;;;5.85;5.03;;;;;;;20.91;57.77;101923.06;6123803;23;20002;-49
2023/05/23 03:41:49;;;;;;;5.95;5.10;;;;;;;20.91;57.71;101928.47;6124128;23;20017;-49
2023/05/23 03:44:15;;;;;;;5.90;5.07;;;;;;;20.91;57.77;101927.63;6124278;23;20076;-48
2023/05/23 03:46:40;;;;;;;6.68;5.38;;;;;;;20.90;57.67;101934.88;6098036;23;20006;-50
2023/05/23 03:49:06;;;;;;;7.20;5.07;;;;;;;20.91;58.03;101933.06;6097758;23;20020;-51
2023/05/23 03:51:31;;;;;;;7.43;5.10;;;;;;;20.90;57.64;101937.59;6123607;23;20010;-52
2023/05/23 03:53:57;;;;;;;8.38;5.63;;;;;;;20.90;57.59;101943.00;6124028;23;20064;-52
2023/05/23 03:56:22;;;;;;;5.53;5.03;;;;;;;20.88;57.60;101935.00;6123752;23;20440;-49
2023/05/23 03:58:47;;;;;;;6.60;5.00;;;;;;;20.88;58.03;101940.44;6123705;23;20006;-51
2023/05/23 04:01:13;;;;;;;5.68;5.18;;;;;;;20.88;57.91;101940.44;6124229;23;20010;-48
2023/05/23 04:03:38;;;;;;;5.30;4.82;;;;;;;20.88;57.65;101945.00;6123400;23;20014;-51
2023/05/23 04:06:04;;;;;;;6.97;4.88;;;;;;;20.87;57.96;101949.56;6123600;23;20006;-51
2023/05/23 04:08:32;;;;;;;5.30;4.80;;;;;;;20.87;57.82;101948.72;6097674;23;20013;-53
2023/05/23 04:11:01;;;;;;;7.35;4.60;;;;;;;20.87;58.00;101948.72;6124062;23;20029;-50
2023/05/23 04:13:27;;;;;;;7.03;4.63;;;;;;;20.86;57.73;101949.69;6123698;23;20009;-52
2023/05/23 04:15:55;;;;;;;7.60;5.43;;;;;;;20.86;57.87;101952.41;6123716;23;20017;-52
2023/05/23 04:18:21;;;;;;;6.75;4.90;;;;;;;20.85;58.18;101951.56;6123724;23;20009;-48
2023/05/23 04:20:47;;;;;;;5.65;4.63;;;;;;;20.85;58.07;101953.41;6123913;23;20022;-52
2023/05/23 04:23:13;;;;;;;6.43;4.43;;;;;;;20.86;57.87;101950.53;6124347;23;20009;-50
2023/05/23 04:25:38;;;;;;;5.65;4.97;;;;;;;20.84;57.52;101960.66;6123682;23;20424;-51
2023/05/23 04:28:05;;;;;;;6.10;4.75;;;;;;;20.84;57.75;101960.66;6124376;23;20006;-48
2023/05/23 04:30:30;;;;;;;7.32;5.00;;;;;;;20.84;57.89;101959.81;6123659;23;20006;-51
2023/05/23 04:32:59;;;;;;;5.85;4.75;;;;;;;20.84;57.55;101965.22;6123625;23;20021;-48
2023/05/23 04:35:27;;;;;;;5.18;4.38;;;;;;;20.83;57.62;101964.38;6123638;23;20018;-51
2023/05/23 04:37:55;;;;;;;6.32;4.78;;;;;;;20.83;57.58;101964.38;6123812;23;20380;-50
2023/05/23 04:40:24;;;;;;;5.45;4.30;;;;;;;20.82;57.79;101976.19;6123467;23;20063;-51
2023/05/23 04:42:50;;;;;;;6.43;5.70;;;;;;;20.82;57.41;101969.91;6123659;23;20042;-51
2023/05/23 04:45:18;;;;;;;5.25;4.75;;;;;;;20.82;57.86;101972.63;6124333;23;20009;-52
2023/05/23 04:47:44;;;;;;;5.38;4.32;;;;;;;20.82;57.46;101972.63;6123460;23;20006;-48
2023/05/23 04:50:10;;;;;;;6.60;4.80;;;;;;;20.82;57.39;101983.47;6123063;23;20069;-52
2023/05/23 04:52:35;;;;;;;5.30;4.45;;;;;;;20.81;57.76;101979.91;6123408;23;20006;-51
2023/05/23 04:55:01;;;;;;;5.43;4.70;;;;;;;20.82;57.47;101988.88;6123580;23;20369;-51
2023/05/23 04:57:26;;;;;;;4.70;3.95;;;;;;;20.82;57.75;101988.88;6123193;23;20385;-51
2023/05/23 04:59:51;;;;;;;5.03;4.25;;;;;;;20.82;57.44;101986.16;6122801;23;20017;-52
2023/05/23 05:02:17;;;;;;;5.00;4.50;;;;;;;20.83;57.78;101982.47;6122285;23;20013;-52
2023/05/23 05:04:43;;;;;;;6.55;4.45;;;;;;;20.83;57.77;101990.59;6096652;23;20037;-48
2023/05/23 05:07:08;;;;;;;7.88;4.50;;;;;;;20.84;58.03;101987.72;6122579;23;20402;-50
2023/05/23 05:09:34;;;;;;;8.73;5.10;;;;;;;20.85;58.12;101999.44;6122221;23;20014;-49
2023/05/23 05:11:59;;;;;;;9.52;4.35;;;;;;;20.85;58.56;102002.13;6122477;23;20010;-47
2023/05/23 05:14:26;;;;;;;7.78;4.50;;;;;;;20.85;58.19;102000.28;6123374;23;20014;-48
2023/05/23 05:16:53;;;;;;;7.65;4.70;;;;;;;20.86;58.37;102007.38;6124376;23;20337;-48
2023/05/23 05:19:19;;;;;;;7.95;4.47;;;;;;;20.85;58.37;102010.25;6123969;23;20109;-50
2023/05/23 05:21:45;;;;;;;7.35;4.70;;;;;;;20.86;58.02;102009.25;6124412;23;20012;-50
2023/05/23 05:24:11;;;;;;;10.38;5.15;;;;;;;20.86;58.50;102009.25;6124628;23;20625;-50
2023/05/23 05:26:36;;;;;;;5.32;4.40;;;;;;;20.86;58.82;102014.66;6124321;23;20053;-51
2023/05/23 05:29:02;;;;;;;10.85;4.82;;;;;;;20.85;58.61;102016.53;6124290;23;20065;-51
2023/05/23 05:31:28;;;;;;;7.13;4.85;;;;;;;20.86;58.31;102022.78;6124299;23;20014;-49
2023/05/23 05:33:53;;;;;;;9.98;4.88;;;;;;;20.86;58.25;102020.06;6124221;23;20040;-49
2023/05/23 05:36:19;;;;;;;10.32;4.57;;;;;;;20.87;58.64;102016.41;6125374;23;20038;-49
2023/05/23 05:38:45;;;;;;;9.18;4.65;;;;;;;20.86;58.52;102022.78;6124909;23;19998;-49
2023/05/23 05:41:10;;;;;;;9.48;5.15;;;;;;;20.85;58.34;102034.63;6124961;23;20010;-50
2023/05/23 05:43:35;;;;;;;8.43;4.80;;;;;;;20.86;58.58;102030.91;6124948;23;20014;-50
2023/05/23 05:46:01;;;;;;;9.82;5.10;;;;;;;20.86;58.26;102036.31;6098843;23;20009;-52
2023/05/23 05:48:26;;;;;;;7.70;4.53;;;;;;;20.86;58.16;102044.44;6124918;23;20017;-49
2023/05/23 05:50:52;;;;;;;8.13;4.93;;;;;;;20.86;58.05;102047.16;6123633;23;20040;-52
2023/05/23 05:53:17;;;;;;;6.13;4.57;;;;;;;20.86;58.17;102047.16;6123903;23;20010;-51
2023/05/23 05:55:42;;;;;;;7.85;5.05;;;;;;;20.86;58.14;102052.56;6123245;23;20061;-52
2023/05/23 05:58:08;;;;;;;8.10;5.15;;;;;;;20.86;58.02;102057.97;6123864;23;20061;-51
2023/05/23 06:00:40;;;;;;;8.10;5.00;;;;;;;20.85;58.25;102057.13;6123158;23;20065;-52
2023/05/23 06:03:06;;;;;;;12.80;5.47;;;;;;;20.85;58.08;102064.41;6123461;23;20006;-51
2023/05/23 06:05:31;;;;;;;6.82;4.85;;;;;;;20.84;57.97;102068.09;6124326;23;20013;-51
2023/05/23 06:07:57;;;;;;;9.60;4.78;;;;;;;20.83;58.32;102058.28;6125033;23;20033;-52
2023/05/23 06:10:23;;;;;;;7.10;4.57;;;;;;;20.83;57.98;102063.69;6125215;23;20443;-50
2023/05/23 06:12:49;;;;;;;8.82;4.85;;;;;;;20.82;58.39;102060.09;6125469;23;20017;-50
2023/05/23 06:15:14;;;;;;;8.95;5.18;;;;;;;20.80;58.33;102070.22;6124518;23;20014;-51
2023/05/23 06:17:40;;;;;;;9.25;5.00;;;;;;;20.82;58.15;102078.19;6124573;23;19998;-49
2023/05/23 06:20:06;;;;;;;8.07;4.90;;;;;;;20.81;57.97;102080.06;6124817;23;20026;-49
2023/05/23 06:22:32;;;;;;;7.53;4.72;;;;;;;20.81;57.92;102076.47;6124745;23;20006;-50
2023/05/23 06:24:57;;;;;;;6.65;4.80;;;;;;;20.81;57.91;102084.59;6124215;23;20009;-52
2023/05/23 06:27:23;;;;;;;7.97;4.72;;;;;;;20.80;57.86;102083.75;6125104;23;20017;-52
2023/05/23 06:29:48;;;;;;;7.60;4.30;;;;;;;20.80;58.23;102093.72;6124645;23;20014;-52
2023/05/23 06:32:13;;;;;;;7.30;4.60;;;;;;;20.79;57.81;102084.75;6124764;23;20009;-52
2023/05/23 06:34:39;;;;;;;8.00;5.03;;;;;;;20.79;58.10;102092.00;6124281;23;20005;-49
2023/05/23 06:37:04;;;;;;;11.65;4.32;;;;;;;20.79;57.72;102092.00;6124673;23;20453;-51
2023/05/23 06:39:30;;;;;;;7.03;4.93;;;;;;;20.78;58.16;102093.00;6124374;23;20009;-51
2023/05/23 06:41:55;;;;;;;6.63;4.60;;;;;;;20.77;58.10;102084.03;6124411;23;20080;-50
2023/05/23 06:44:21;;;;;;;7.93;4.53;;;;;;;20.77;57.58;102096.69;6125090;23;20463;-48
2023/05/23 06:46:46;;;;;;;6.78;3.88;;;;;;;20.77;57.56;102099.38;6124765;23;20088;-51
2023/05/23 06:49:12;;;;;;;9.10;4.10;;;;;;;20.76;57.59;102103.09;6124381;23;20080;-49
2023/05/23 06:51:37;;;;;;;6.63;4.03;;;;;;;20.75;57.89;102102.22;6124580;23;20036;-52
2023/05/23 06:54:03;;;;;;;5.40;3.40;;;;;;;20.74;57.70;102100.53;6124330;23;20520;-52
2023/05/23 06:56:29;;;;;;;7.05;4.43;;;;;;;20.75;57.70;102115.75;6124300;23;20014;-51
2023/05/23 06:58:54;;;;;;;6.35;4.45;;;;;;;20.75;57.76;102123.03;6124963;23;20386;-50
2023/05/23 07:01:19;;;;;;;6.97;3.97;;;;;;;20.75;57.52;102131.16;6124193;23;20013;-51
2023/05/23 07:03:45;;;;;;;7.75;4.13;;;;;;;20.74;57.90;102132.16;6124437;23;20018;-52
2023/05/23 07:06:11;;;;;;;9.30;4.35;;;;;;;20.75;57.39;102144.69;6124037;23;20017;-51
2023/05/23 07:08:37;;;;;;;5.97;3.72;;;;;;;20.73;57.33;102142.09;6124186;23;20010;-52
2023/05/23 07:11:03;;;;;;;9.05;4.30;;;;;;;20.73;57.33;102147.50;6124165;23;20002;-47
2023/05/23 07:13:28;;;;;;;6.95;4.22;;;;;;;20.74;57.47;102148.41;6124355;23;20020;-51
2023/05/23 07:15:55;;;;;;;7.63;4.47;;;;;;;20.74;57.86;102143.84;6124583;23;20013;-51
2023/05/23 07:18:20;;;;;;;7.68;4.20;;;;;;;20.74;57.51;102143.84;6123985;23;20009;-52
2023/05/23 07:20:45;;;;;;;9.07;3.90;;;;;;;20.74;57.18;102135.72;6123574;23;20349;-51
2023/05/23 07:23:11;;;;;;;5.80;3.33;;;;;;;20.75;57.81;102140.13;6123964;23;20042;-49
2023/05/23 07:25:36;;;;;;;7.72;3.97;;;;;;;20.75;57.71;102150.09;6123883;23;20010;-50
2023/05/23 07:28:01;;;;;;;5.90;3.95;;;;;;;20.75;57.71;102150.94;6123938;23;20064;-51
2023/05/23 07:30:27;;;;;;;5.80;3.88;;;;;;;20.76;57.23;102141.00;6124022;23;20084;-51
2023/05/23 07:32:54;;;;;;;8.20;4.25;;;;;;;20.76;57.46;102155.38;6124444;23;20310;-51
2023/05/23 07:35:24;;;;;;;6.43;3.63;;;;;;;20.77;57.60;102150.81;6123563;23;20064;-51
2023/05/23 07:37:50;;;;;;;6.05;3.85;;;;;;;20.78;57.56;102155.25;6124171;23;20029;-52
2023/05/23 07:40:16;;;;;;;4.53;3.45;;;;;;;20.77;57.11;102154.41;6123789;23;20069;-52
2023/05/23 07:42:41;;;;;;;7.13;3.92;;;;;;;20.77;57.14;102150.81;6124043;23;20378;-50
2023/05/23 07:45:07;;;;;;;7.53;3.50;;;;;;;20.77;57.54;102157.13;6124075;23;20492;-50
2023/05/23 07:47:32;;;;;;;7.68;3.90;;;;;;;20.78;57.53;102155.25;6124082;23;20006;-52
2023/05/23 07:50:00;;;;;;;7.55;3.67;;;;;;;20.78;57.55;102161.53;6097800;23;20355;-51
2023/05/23 07:52:27;;;;;;;7.13;4.00;;;;;;;20.78;57.16;102161.53;6124210;23;20010;-50
2023/05/23 07:54:52;;;;;;;5.28;3.33;;;;;;;20.78;57.48;102158.81;6124132;23;20012;-49
2023/05/23 07:57:18;;;;;;;5.65;3.80;;;;;;;20.80;57.28;102169.50;6123908;23;20010;-49
2023/05/23 07:59:43;;;;;;;9.40;4.43;;;;;;;20.79;57.06;102159.66;6123888;23;20012;-50
2023/05/23 08:02:08;;;;;;;6.78;3.80;;;;;;;20.80;57.36;102169.50;6097792;23;20316;-50
2023/05/23 08:04:34;;;;;;;6.30;4.00;;;;;;;20.80;57.10;102169.50;6123525;23;20083;-52
2023/05/23 08:07:00;;;;;;;6.47;3.60;;;;;;;20.80;57.16;102169.50;6123581;23;20041;-49
2023/05/23 08:09:26;;;;;;;5.43;3.63;;;;;;;20.80;56.82;102175.78;6124096;23;20013;-50
2023/05/23 08:11:51;;;;;;;6.28;3.63;;;;;;;20.80;56.83;102175.78;6124170;23;20010;-47
2023/05/23 08:14:16;;;;;;;5.40;3.45;;;;;;;20.79;56.78;102189.44;6124042;23;20033;-52
2023/05/23 08:16:42;;;;;;;6.10;3.65;;;;;;;20.79;56.77;102189.44;6097713;23;20451;-50
2023/05/23 08:19:07;;;;;;;4.25;3.03;;;;;;;20.79;57.27;102192.16;6123490;23;20444;-52
2023/05/23 08:21:35;;;;;;;5.60;3.72;;;;;;;20.79;57.03;102189.44;6123599;23;20016;-51
2023/05/23 08:24:00;;;;;;;6.20;3.85;;;;;;;20.79;57.08;102184.03;6123948;23;20378;-52
2023/05/23 08:26:29;;;;;;;5.35;3.28;;;;;;;20.79;56.72;102181.31;6124397;23;20006;-50
2023/05/23 08:28:54;;;;;;;8.93;3.83;;;;;;;20.78;56.65;102187.75;6124273;23;20087;-50
2023/05/23 08:31:20;;;;;;;5.38;3.30;;;;;;;20.78;56.66;102193.16;6123672;23;20030;-47
2023/05/23 08:33:46;;;;;;;5.78;3.67;;;;;;;20.79;57.20;102184.03;6123907;23;20388;-49
2023/05/23 08:36:11;;;;;;;6.78;4.00;;;;;;;20.78;56.57;102185.03;6123571;23;20060;-52
2023/05/23 08:38:36;;;;;;;5.95;4.03;;;;;;;20.78;56.92;102194.00;6123739;23;20410;-49
2023/05/23 08:41:07;;;;;;;4.75;3.55;;;;;;;20.78;56.67;102195.84;6123475;23;20321;-51
2023/05/23 08:43:32;;;;;;;6.32;3.63;;;;;;;20.77;56.81;102192.31;6123837;23;20378;-49
2023/05/23 08:45:58;;;;;;;6.28;3.95;;;;;;;20.78;56.67;102194.00;6124125;23;20033;-53
2023/05/23 08:48:25;;;;;;;4.88;3.30;;;;;;;20.78;56.90;102195.84;6123694;23;20096;-49
2023/05/23 08:50:52;;;;;;;5.72;3.53;;;;;;;20.78;56.93;102201.28;6125278;23;20033;-53
2023/05/23 08:53:19;;;;;;;5.75;3.67;;;;;;;20.78;56.87;102203.97;6125805;23;20012;-49
2023/05/23 08:55:47;;;;;;;8.55;3.20;;;;;;;20.76;56.62;102206.81;6125497;23;20016;-52
2023/05/23 08:58:14;;;;;;;7.03;4.03;;;;;;;20.78;56.86;102203.97;6125732;23;20322;-48
2023/05/23 09:00:41;;;;;;;4.50;3.08;;;;;;;20.78;56.81;102199.41;6125566;23;20012;-50
2023/05/23 09:03:08;;;;;;;6.18;3.45;;;;;;;20.78;56.59;102203.97;6125587;23;20006;-50
2023/05/23 09:05:33;;;;;;;5.00;3.00;;;;;;;20.79;56.70;102205.69;6125571;23;20048;-51
2023/05/23 09:07:58;;;;;;;6.47;3.10;;;;;;;20.79;56.87;102211.97;6125571;23;20041;-50
2023/05/23 09:10:24;;;;;;;5.07;3.20;;;;;;;20.79;56.53;102211.97;6125266;23;20018;-50
2023/05/23 09:12:50;;;;;;;5.10;3.42;;;;;;;20.79;56.93;102213.78;6125116;23;20034;-52
2023/05/23 09:15:16;;;;;;;6.30;3.67;;;;;;;20.79;56.51;102214.69;6125180;23;20057;-52
2023/05/23 09:17:42;;;;;;;7.50;3.40;;;;;;;20.79;56.46;102216.50;6125173;23;20006;-52
2023/05/23 09:20:12;;;;;;;6.00;3.05;;;;;;;20.79;56.96;102222.81;6124777;23;20025;-50
2023/05/23 09:22:37;;;;;;;5.57;3.03;;;;;;;20.79;56.81;102217.38;6125431;23;20060;-51
2023/05/23 09:25:04;;;;;;;6.65;3.65;;;;;;;20.80;56.82;102226.34;6125392;23;20014;-51
2023/05/23 09:27:30;;;;;;;4.15;3.20;;;;;;;20.79;56.72;102217.38;6125375;23;20073;-52
2023/05/23 09:29:55;;;;;;;5.50;3.20;;;;;;;20.79;56.43;102221.91;6125137;23;20030;-52
2023/05/23 09:32:21;;;;;;;4.30;2.75;;;;;;;20.80;56.45;102229.06;6125231;23;20006;-52
2023/05/23 09:34:55;;;;;;;4.10;3.05;;;;;;;20.81;56.95;102225.34;6124914;23;20014;-51
2023/05/23 09:37:23;;;;;;;6.18;3.60;;;;;;;20.79;56.73;102220.09;6124974;23;20029;-53
2023/05/23 09:39:49;;;;;;;6.57;3.35;;;;;;;20.79;56.59;102227.34;6098978;23;20013;-48
2023/05/23 09:42:21;;;;;;;5.18;2.72;;;;;;;20.78;56.52;102229.19;6099052;23;20033;-50
2023/05/23 09:44:48;;;;;;;3.97;2.78;;;;;;;20.78;56.39;102226.47;6125357;23;20077;-51
2023/05/23 09:47:15;;;;;;;4.63;3.05;;;;;;;20.78;56.72;102229.19;6125546;23;20016;-51
2023/05/23 09:49:42;;;;;;;4.60;2.83;;;;;;;20.80;56.76;102231.78;6125355;23;20033;-51
2023/05/23 09:52:08;;;;;;;3.40;2.67;;;;;;;20.81;56.46;102236.19;6125655;23;20006;-51
2023/05/23 09:54:33;;;;;;;6.32;2.85;;;;;;;20.79;56.48;102227.34;6098972;23;20424;-52
2023/05/23 09:57:01;;;;;;;5.18;3.35;;;;;;;20.79;56.65;102235.47;6125639;23;20016;-51
2023/05/23 09:59:33;;;;;;;3.63;2.55;;;;;;;20.80;56.88;102239.91;6124568;23;20002;-51
2023/05/23 10:02:02;;;;;;;7.40;2.70;;;;;;;20.80;56.71;102229.06;6124919;23;20013;-52
2023/05/23 10:04:30;;;;;;;3.70;2.63;;;;;;;20.81;56.77;102228.06;6125808;23;20009;-50
2023/05/23 10:07:03;;;;;;;6.20;2.67;;;;;;;20.80;56.44;102227.22;6125234;23;20388;-51
2023/05/23 10:09:35;;;;;;;8.25;3.15;;;;;;;20.83;56.59;102223.41;6125094;23;20491;-51
2023/05/23 10:12:32;;;;;;;4.40;2.85;;;;;;;20.84;56.42;102222.41;6125345;23;20325;-50
2023/05/23 10:15:03;;;;;;;4.45;2.88;;;;;;;20.84;56.43;102222.41;6060096;23;20033;-52
2023/05/23 10:17:36;;;;;;;6.78;3.10;;;;;;;20.84;56.86;102223.25;6125027;23;20142;-51
2023/05/23 10:20:11;;;;;;;4.72;2.75;;;;;;;20.85;56.85;102224.13;6124867;23;20018;-52
2023/05/23 10:22:37;;;;;;;7.53;3.50;;;;;;;20.86;56.67;102233.94;6124902;23;20009;-51
2023/05/23 10:25:09;;;;;;;4.28;2.80;;;;;;;20.86;56.80;102228.53;6125172;23;20006;-51
2023/05/23 10:27:37;;;;;;;4.93;2.90;;;;;;;20.87;56.40;102227.56;6124622;23;20448;-52
2023/05/23 10:30:03;;;;;;;6.40;3.08;;;;;;;20.88;56.74;102235.53;6124916;23;20002;-53
2023/05/23 10:32:29;;;;;;;5.18;2.97;;;;;;;20.88;56.63;102238.22;6124599;23;20041;-52
2023/05/23 10:35:09;;;;;;;4.50;2.42;;;;;;;20.89;56.42;102220.16;6124409;23;20021;-50
2023/05/23 10:37:51;;;;;;;4.95;2.78;;;;;;;20.89;56.65;102228.28;6124785;23;20022;-51
2023/05/23 10:40:32;;;;;;;5.50;3.00;;;;;;;20.91;56.62;102234.41;6124455;23;20006;-52
2023/05/23 10:43:13;;;;;;;8.82;3.10;;;;;;;20.92;56.71;102235.28;6124486;23;20009;-51
2023/05/23 10:45:43;;;;;;;7.05;2.88;;;;;;;20.93;56.30;102231.59;6124363;23;20394;-50
2023/05/23 10:48:27;;;;;;;5.15;2.35;;;;;;;20.94;56.68;102231.44;6124587;23;20353;-51
2023/05/23 10:51:04;;;;;;;5.47;3.28;;;;;;;20.94;56.55;102230.59;6124177;23;20026;-53
2023/05/23 10:53:31;;;;;;;5.15;3.15;;;;;;;20.94;56.46;102231.44;6124202;23;20014;-52
2023/05/23 10:55:57;;;;;;;6.70;3.08;;;;;;;20.94;56.39;102217.88;6124257;23;20009;-53
2023/05/23 10:58:22;;;;;;;6.35;2.70;;;;;;;20.95;56.45;102219.63;6124543;23;20006;-52
2023/05/23 11:00:53;;;;;;;6.43;2.85;;;;;;;20.94;56.12;102226.00;6124240;23;20010;-52
2023/05/23 11:03:28;;;;;;;5.22;2.60;;;;;;;20.94;56.21;102236.84;6124132;23;20002;-51
2023/05/23 11:05:54;;;;;;;7.05;3.00;;;;;;;20.96;55.79;102228.59;6124067;23;20006;-51
2023/05/23 11:08:23;;;;;;;6.47;2.72;;;;;;;20.95;55.98;102235.88;6124227;23;20014;-51
2023/05/23 11:10:59;;;;;;;5.85;2.90;;;;;;;20.97;56.13;102233.88;6124148;23;20006;-51
2023/05/23 11:13:45;;;;;;;7.45;2.50;;;;;;;20.97;55.69;102227.63;6124022;23;20021;-52
2023/05/23 11:16:40;;;;;;;5.25;2.50;;;;;;;20.99;56.17;102233.75;6123819;23;20013;-52
2023/05/23 11:19:18;;;;;;;6.90;2.92;;;;;;;20.99;55.91;102231.06;6124708;23;20443;-52
2023/05/23 11:21:44;;;;;;;5.78;2.55;;;;;;;20.98;55.73;102232.03;6123954;23;20009;-52
2023/05/23 11:24:10;;;;;;;3.60;2.55;;;;;;;20.99;55.66;102223.78;6124112;23;20460;-52
2023/05/23 11:26:35;;;;;;;6.95;2.63;;;;;;;20.99;55.30;102225.63;6124365;23;20021;-52